Time;durP1;ratioP1;P1;durP2;ratioP2;P2;SDS_P1;SDS_P2;PMS_P1;PMS_P2;Temp;Humidity;BMP_temperature;BMP_pressure;BME280_temperature;BME280_humidity;BME280_pressure;Samples;Min_cycle;Max_cycle;Signal;HPM_P1;HPM_P2
2022/06/26 00:00:00;;;;;;;10.52;9.68;;;;;;;;;;5021048;28;20454;-76
2022/06/26 00:02:27;;;;;;;11.20;10.40;;;;;;;;;;5007572;28;20508;-75
2022/06/26 00:04:55;;;;;;;13.27;12.18;;;;;;;;;;5008545;28;20430;-75
2022/06/26 00:07:24;;;;;;;13.20;12.10;;;;;;;;;;5013478;28;20529;-76
2022/06/26 00:09:51;;;;;;;11.60;10.80;;;;;;;;;;5018646;28;21116;-77
2022/06/26 00:12:18;;;;;;;13.98;12.68;;;;;;;;;;5020171;28;20427;-76
2022/06/26 00:14:45;;;;;;;12.10;11.20;;;;;;;;;;5019892;28;20439;-75
2022/06/26 00:17:12;;;;;;;10.25;9.52;;;;;;;;;;5013905;28;20467;-75
2022/06/26 00:19:39;;;;;;;12.05;11.15;;;;;;;;;;5019005;28;20448;-75
2022/06/26 00:22:08;;;;;;;9.50;8.90;;;;;;;;;;5032719;28;20439;-77
2022/06/26 00:24:37;;;;;;;10.70;9.80;;;;;;;;;;5030379;28;20511;-75
2022/06/26 00:27:06;;;;;;;10.20;9.50;;;;;;;;;;5024867;28;20946;-75
2022/06/26 00:29:33;;;;;;;10.90;10.10;;;;;;;;;;5023685;28;20927;-78
2022/06/26 00:32:01;;;;;;;10.50;9.70;;;;;;;;;;5027810;28;20810;-77
2022/06/26 00:34:28;;;;;;;12.10;11.20;;;;;;;;;;5024346;28;20532;-75
2022/06/26 00:36:55;;;;;;;12.60;11.50;;;;;;;;;;5017243;28;20450;-77
2022/06/26 00:39:22;;;;;;;11.20;10.40;;;;;;;;;;5020448;28;20435;-75
2022/06/26 00:41:51;;;;;;;11.25;10.45;;;;;;;;;;5011279;28;20520;-75
2022/06/26 00:44:19;;;;;;;10.45;9.55;;;;;;;;;;5013801;28;20466;-79
2022/06/26 00:46:46;;;;;;;10.90;10.10;;;;;;;;;;5011177;28;20430;-77
2022/06/26 00:49:14;;;;;;;11.10;10.30;;;;;;;;;;5012453;28;20453;-76
2022/06/26 00:51:42;;;;;;;10.32;9.55;;;;;;;;;;5020043;28;20434;-76
2022/06/26 00:54:09;;;;;;;11.77;10.85;;;;;;;;;;5005033;28;20432;-76
2022/06/26 00:56:36;;;;;;;11.75;10.75;;;;;;;;;;5016885;28;20461;-77
2022/06/26 00:59:05;;;;;;;9.35;8.65;;;;;;;;;;5016208;28;20554;-77
2022/06/26 01:01:34;;;;;;;9.95;9.25;;;;;;;;;;5009249;28;20447;-77
2022/06/26 01:04:01;;;;;;;9.93;9.10;;;;;;;;;;5014101;28;20461;-77
2022/06/26 01:06:28;;;;;;;10.20;9.50;;;;;;;;;;5020657;28;20443;-75
2022/06/26 01:08:56;;;;;;;11.98;11.07;;;;;;;;;;5009400;28;20445;-74
2022/06/26 01:11:23;;;;;;;11.25;10.35;;;;;;;;;;5017106;28;20439;-78
2022/06/26 01:13:52;;;;;;;11.65;10.75;;;;;;;;;;5019294;28;20506;-75
2022/06/26 01:16:21;;;;;;;12.00;11.00;;;;;;;;;;5015010;28;20507;-76
2022/06/26 01:18:49;;;;;;;10.30;9.50;;;;;;;;;;5010538;28;20447;-77
2022/06/26 01:21:17;;;;;;;12.03;11.23;;;;;;;;;;5020764;28;20447;-76
2022/06/26 01:23:45;;;;;;;11.85;10.95;;;;;;;;;;5021198;28;20450;-75
2022/06/26 01:26:12;;;;;;;11.93;11.13;;;;;;;;;;5019491;28;20450;-76
2022/06/26 01:28:39;;;;;;;12.30;11.30;;;;;;;;;;5017012;28;20954;-75
2022/06/26 01:31:06;;;;;;;12.15;11.15;;;;;;;;;;5017645;28;20614;-76
2022/06/26 01:33:34;;;;;;;11.10;10.30;;;;;;;;;;5014447;28;20434;-77
2022/06/26 01:36:01;;;;;;;10.35;9.55;;;;;;;;;;5021822;28;20493;-76
2022/06/26 01:38:28;;;;;;;11.23;10.43;;;;;;;;;;5024043;28;20499;-76
2022/06/26 01:40:57;;;;;;;12.05;11.05;;;;;;;;;;5023971;28;20426;-76
2022/06/26 01:43:25;;;;;;;11.88;11.00;;;;;;;;;;5023050;28;20454;-76
2022/06/26 01:45:54;;;;;;;12.50;11.60;;;;;;;;;;5012827;28;20438;-76
2022/06/26 01:48:22;;;;;;;11.52;10.63;;;;;;;;;;5016287;28;20431;-76
2022/06/26 01:50:49;;;;;;;12.25;11.35;;;;;;;;;;5022061;28;20433;-77
2022/06/26 01:53:16;;;;;;;13.70;12.60;;;;;;;;;;5013035;28;20541;-75
2022/06/26 01:55:44;;;;;;;13.73;12.43;;;;;;;;;;5022610;28;20786;-76
2022/06/26 01:58:13;;;;;;;13.20;12.20;;;;;;;;;;5018370;28;20446;-76
2022/06/26 02:00:41;;;;;;;13.32;12.13;;;;;;;;;;5022148;28;20536;-76
2022/06/26 02:03:09;;;;;;;14.10;13.10;;;;;;;;;;5021836;28;20435;-76
2022/06/26 02:05:36;;;;;;;13.98;12.93;;;;;;;;;;5021293;28;20439;-76
2022/06/26 02:08:03;;;;;;;14.53;13.30;;;;;;;;;;5021899;28;20435;-76
2022/06/26 02:16:03;;;;;;;14.60;13.40;;;;;;;;;;5020638;28;20452;-76
2022/06/26 02:18:30;;;;;;;14.18;13.07;;;;;;;;;;5021721;28;20465;-76
2022/06/26 02:20:57;;;;;;;14.50;13.35;;;;;;;;;;5022117;28;20541;-75
2022/06/26 02:23:25;;;;;;;14.77;13.57;;;;;;;;;;5011027;28;20441;-76
2022/06/26 02:25:52;;;;;;;14.30;13.10;;;;;;;;;;5021587;28;20438;-75
2022/06/26 02:28:20;;;;;;;15.60;14.10;;;;;;;;;;5022854;28;20483;-76
2022/06/26 02:30:48;;;;;;;15.65;14.25;;;;;;;;;;5020815;28;20514;-76
2022/06/26 02:33:15;;;;;;;14.68;13.48;;;;;;;;;;5020459;28;20549;-78
2022/06/26 02:35:42;;;;;;;15.40;14.00;;;;;;;;;;5021418;28;20518;-76
2022/06/26 02:38:09;;;;;;;14.98;13.57;;;;;;;;;;5012782;28;20431;-74
2022/06/26 02:40:36;;;;;;;14.88;13.57;;;;;;;;;;5014553;28;20433;-78
2022/06/26 02:43:03;;;;;;;14.60;13.40;;;;;;;;;;5020444;28;20441;-75
2022/06/26 02:45:32;;;;;;;14.90;13.60;;;;;;;;;;5013688;28;20435;-75
2022/06/26 02:47:59;;;;;;;15.25;13.95;;;;;;;;;;5016520;28;20775;-76
2022/06/26 02:50:26;;;;;;;14.85;13.65;;;;;;;;;;5021125;28;20445;-76
2022/06/26 02:52:53;;;;;;;14.77;13.48;;;;;;;;;;5018319;28;20423;-77
2022/06/26 02:55:20;;;;;;;14.13;13.02;;;;;;;;;;5011852;28;20494;-75
2022/06/26 02:57:47;;;;;;;17.30;15.82;;;;;;;;;;5020695;28;20511;-76
2022/06/26 03:00:15;;;;;;;16.30;14.90;;;;;;;;;;5021582;28;20786;-75
2022/06/26 03:02:44;;;;;;;17.35;15.95;;;;;;;;;;5017657;28;20431;-75
2022/06/26 03:05:11;;;;;;;17.95;16.15;;;;;;;;;;5020743;28;20435;-75
2022/06/26 03:07:38;;;;;;;18.65;16.95;;;;;;;;;;5021735;28;20749;-75
2022/06/26 03:10:06;;;;;;;18.70;16.90;;;;;;;;;;5022720;28;20419;-78
2022/06/26 03:12:33;;;;;;;18.48;16.67;;;;;;;;;;5016682;28;20419;-74
2022/06/26 03:15:02;;;;;;;19.30;17.52;;;;;;;;;;5012277;28;20483;-75
2022/06/26 03:17:29;;;;;;;20.25;18.50;;;;;;;;;;5020761;28;21249;-77
2022/06/26 03:19:58;;;;;;;21.35;19.58;;;;;;;;;;5012228;28;20448;-76
2022/06/26 03:22:25;;;;;;;24.40;22.30;;;;;;;;;;5018611;28;20489;-76
2022/06/26 03:24:52;;;;;;;25.17;22.80;;;;;;;;;;5011787;28;20439;-75
2022/06/26 03:27:19;;;;;;;24.25;22.05;;;;;;;;;;5020801;28;20454;-74
2022/06/26 03:29:46;;;;;;;22.60;20.60;;;;;;;;;;5022470;28;20419;-75
2022/06/26 03:32:13;;;;;;;20.40;18.60;;;;;;;;;;5020792;28;20438;-75
2022/06/26 03:34:40;;;;;;;18.20;16.60;;;;;;;;;;5017933;28;21117;-75
2022/06/26 03:37:08;;;;;;;16.92;15.52;;;;;;;;;;5020195;28;20683;-76
2022/06/26 03:39:36;;;;;;;15.93;14.43;;;;;;;;;;5012426;28;20915;-77
2022/06/26 03:42:03;;;;;;;14.13;13.02;;;;;;;;;;5009678;28;20506;-78
2022/06/26 03:44:31;;;;;;;14.50;13.30;;;;;;;;;;5011170;28;20607;-75
2022/06/26 03:46:58;;;;;;;13.13;12.10;;;;;;;;;;5018746;28;20960;-74
2022/06/26 03:49:25;;;;;;;12.20;11.20;;;;;;;;;;5019207;28;20458;-77
2022/06/26 03:51:53;;;;;;;12.48;11.38;;;;;;;;;;5010889;28;20454;-74
2022/06/26 03:54:21;;;;;;;11.82;10.82;;;;;;;;;;5016685;28;20827;-73
2022/06/26 03:56:48;;;;;;;11.70;10.70;;;;;;;;;;5020925;28;20471;-74
2022/06/26 03:59:15;;;;;;;12.18;11.07;;;;;;;;;;5011931;28;20435;-77
2022/06/26 04:01:42;;;;;;;12.27;11.27;;;;;;;;;;5018701;28;20449;-76
2022/06/26 04:04:10;;;;;;;11.82;10.90;;;;;;;;;;5019111;28;20617;-75
2022/06/26 04:06:37;;;;;;;12.68;11.57;;;;;;;;;;5017768;28;20526;-75
2022/06/26 04:09:04;;;;;;;10.18;9.18;;;;;;;;;;5011723;28;20559;-76
2022/06/26 04:11:33;;;;;;;8.27;7.57;;;;;;;;;;5014200;28;20599;-74
2022/06/26 04:14:00;;;;;;;7.13;6.53;;;;;;;;;;5016412;28;20940;-74
2022/06/26 04:16:27;;;;;;;6.27;5.70;;;;;;;;;;5015375;28;20442;-74
2022/06/26 04:18:54;;;;;;;7.18;6.47;;;;;;;;;;5010755;28;20462;-75
2022/06/26 04:21:21;;;;;;;6.38;5.88;;;;;;;;;;5012209;28;20444;-74
2022/06/26 04:23:48;;;;;;;6.43;5.88;;;;;;;;;;5017488;28;20430;-76
2022/06/26 04:26:15;;;;;;;6.60;6.10;;;;;;;;;;5015316;28;20440;-75
2022/06/26 04:28:44;;;;;;;5.78;5.30;;;;;;;;;;5014393;28;20505;-77
2022/06/26 04:31:11;;;;;;;5.00;4.60;;;;;;;;;;5016923;28;20454;-74
2022/06/26 04:33:38;;;;;;;4.90;4.50;;;;;;;;;;5020046;28;20794;-75
2022/06/26 04:36:05;;;;;;;4.80;4.40;;;;;;;;;;5020949;28;20451;-75
2022/06/26 04:38:32;;;;;;;4.90;4.50;;;;;;;;;;5016956;28;20440;-74
2022/06/26 04:41:31;;;;;;;4.68;4.18;;;;;;;;;;5028687;28;20479;-74
2022/06/26 04:43:48;;;;;;;4.00;3.70;;;;;;;;;;5026430;28;20425;-74
2022/06/26 04:46:15;;;;;;;3.75;3.33;;;;;;;;;;5023058;28;20534;-76
2022/06/26 04:48:42;;;;;;;3.70;3.40;;;;;;;;;;5010215;28;20927;-77
2022/06/26 04:51:09;;;;;;;3.50;3.05;;;;;;;;;;5012456;28;20425;-77
2022/06/26 04:53:37;;;;;;;4.00;3.53;;;;;;;;;;5024009;28;20422;-76
2022/06/26 04:56:04;;;;;;;3.45;3.15;;;;;;;;;;5015485;28;20501;-76
2022/06/26 04:58:31;;;;;;;3.33;3.13;;;;;;;;;;5016463;28;20438;-75
2022/06/26 05:00:59;;;;;;;3.93;3.30;;;;;;;;;;5023726;28;20446;-76
2022/06/26 05:03:26;;;;;;;3.00;2.70;;;;;;;;;;5023138;28;21088;-77
2022/06/26 05:05:54;;;;;;;3.33;3.00;;;;;;;;;;5017401;28;20636;-76
2022/06/26 05:08:21;;;;;;;3.10;2.80;;;;;;;;;;5016944;28;20427;-77
2022/06/26 05:10:48;;;;;;;3.08;2.78;;;;;;;;;;5014515;28;20543;-78
2022/06/26 05:13:15;;;;;;;4.53;3.05;;;;;;;;;;5017579;28;20443;-75
2022/06/26 05:15:42;;;;;;;3.70;2.77;;;;;;;;;;5017505;28;20457;-75
2022/06/26 05:18:10;;;;;;;3.70;2.75;;;;;;;;;;5013323;28;20447;-75
2022/06/26 05:20:38;;;;;;;3.20;2.90;;;;;;;;;;5019423;28;20500;-76
2022/06/26 05:23:07;;;;;;;2.90;2.60;;;;;;;;;;5015227;28;20438;-75
2022/06/26 05:25:34;;;;;;;3.73;2.70;;;;;;;;;;5017106;28;20438;-75
2022/06/26 05:28:02;;;;;;;2.85;2.40;;;;;;;;;;5022493;28;20461;-75
2022/06/26 05:30:29;;;;;;;3.13;2.53;;;;;;;;;;5021731;28;20504;-76
2022/06/26 05:32:56;;;;;;;3.38;2.70;;;;;;;;;;5021279;28;20453;-73
2022/06/26 05:35:25;;;;;;;2.80;2.60;;;;;;;;;;5021708;28;20948;-68
2022/06/26 05:37:52;;;;;;;3.10;2.80;;;;;;;;;;5011647;28;20874;-68
2022/06/26 05:40:19;;;;;;;2.75;2.35;;;;;;;;;;5015334;28;20424;-68
2022/06/26 05:42:46;;;;;;;3.70;1.80;;;;;;;;;;5015339;28;20758;-67
2022/06/26 05:45:13;;;;;;;2.50;2.00;;;;;;;;;;5013000;28;20422;-68
2022/06/26 05:47:40;;;;;;;1.90;1.70;;;;;;;;;;5014295;28;20438;-68
2022/06/26 05:50:08;;;;;;;1.90;1.40;;;;;;;;;;5014600;28;20821;-69
2022/06/26 05:52:37;;;;;;;2.35;1.85;;;;;;;;;;5009824;28;20449;-67
2022/06/26 05:55:04;;;;;;;1.80;1.50;;;;;;;;;;5016999;28;20431;-68
2022/06/26 05:57:31;;;;;;;3.25;1.50;;;;;;;;;;5017177;28;20427;-67
2022/06/26 05:59:58;;;;;;;2.90;1.60;;;;;;;;;;5015390;28;20442;-68
2022/06/26 06:02:25;;;;;;;1.70;1.60;;;;;;;;;;5012811;28;20423;-70
2022/06/26 06:04:53;;;;;;;2.08;1.50;;;;;;;;;;5012925;28;20558;-69
2022/06/26 06:07:20;;;;;;;2.27;1.90;;;;;;;;;;5016182;28;20907;-68
2022/06/26 06:09:50;;;;;;;2.50;1.70;;;;;;;;;;5015267;28;20439;-67
2022/06/26 06:12:17;;;;;;;1.90;1.50;;;;;;;;;;5017092;28;20434;-70
2022/06/26 06:14:44;;;;;;;3.40;1.80;;;;;;;;;;5017304;28;20454;-70
2022/06/26 06:19:56;;;;;;;3.08;1.40;;;;;;;;;;5014584;28;20418;-67
2022/06/26 06:22:23;;;;;;;2.63;1.60;;;;;;;;;;5016720;28;20431;-67
2022/06/26 06:24:52;;;;;;;1.63;1.40;;;;;;;;;;5016279;28;20435;-69
2022/06/26 06:27:19;;;;;;;2.38;1.70;;;;;;;;;;5012868;28;20901;-69
2022/06/26 06:29:46;;;;;;;2.50;2.00;;;;;;;;;;5011075;28;20902;-68
2022/06/26 06:32:13;;;;;;;2.35;1.67;;;;;;;;;;5019358;28;20553;-67
2022/06/26 06:34:40;;;;;;;1.60;1.50;;;;;;;;;;5016265;28;20453;-67
2022/06/26 06:37:08;;;;;;;2.00;1.80;;;;;;;;;;5018254;28;20431;-68
2022/06/26 06:39:35;;;;;;;1.50;1.40;;;;;;;;;;5011594;28;20453;-68
2022/06/26 06:42:04;;;;;;;3.97;1.80;;;;;;;;;;5016585;28;20480;-68
2022/06/26 06:44:31;;;;;;;1.80;1.40;;;;;;;;;;5013540;28;20498;-68
2022/06/26 06:46:58;;;;;;;3.40;1.45;;;;;;;;;;5016366;28;20423;-67
2022/06/26 06:49:25;;;;;;;2.90;1.50;;;;;;;;;;5016161;28;20458;-67
2022/06/26 06:51:52;;;;;;;2.10;1.50;;;;;;;;;;5012852;28;20432;-67
2022/06/26 06:54:19;;;;;;;1.50;1.37;;;;;;;;;;5014356;28;21087;-68
2022/06/26 06:56:47;;;;;;;2.80;1.30;;;;;;;;;;5014371;28;20438;-66
2022/06/26 06:59:15;;;;;;;2.30;1.60;;;;;;;;;;5015353;28;20467;-70
2022/06/26 07:01:43;;;;;;;2.30;1.60;;;;;;;;;;5009734;28;20455;-72
2022/06/26 07:04:10;;;;;;;2.50;1.50;;;;;;;;;;5013299;28;20581;-72
2022/06/26 07:06:37;;;;;;;3.15;1.98;;;;;;;;;;5013080;28;20441;-73
2022/06/26 07:09:04;;;;;;;2.50;1.60;;;;;;;;;;5013532;28;20945;-74
2022/06/26 07:11:32;;;;;;;2.17;1.60;;;;;;;;;;5011090;28;20432;-74
2022/06/26 07:13:59;;;;;;;2.53;1.90;;;;;;;;;;5011431;28;20432;-74
2022/06/26 07:16:27;;;;;;;2.17;1.87;;;;;;;;;;5015581;28;20669;-73
2022/06/26 07:18:54;;;;;;;2.40;1.50;;;;;;;;;;5007756;28;20523;-73
2022/06/26 07:21:21;;;;;;;1.70;1.60;;;;;;;;;;5015471;28;20528;-76
2022/06/26 07:23:49;;;;;;;2.10;1.60;;;;;;;;;;5013523;28;20433;-73
2022/06/26 07:26:16;;;;;;;2.00;1.50;;;;;;;;;;5014714;28;20442;-74
2022/06/26 07:28:43;;;;;;;2.40;1.50;;;;;;;;;;5015053;28;20443;-70
2022/06/26 07:31:10;;;;;;;2.20;1.40;;;;;;;;;;5013062;28;20502;-67
2022/06/26 07:36:23;;;;;;;2.00;1.40;;;;;;;;;;5012292;28;20596;-68
2022/06/26 07:38:51;;;;;;;2.17;1.40;;;;;;;;;;5008892;28;20447;-72
2022/06/26 07:41:18;;;;;;;1.70;1.30;;;;;;;;;;5011211;28;20485;-72
2022/06/26 07:43:45;;;;;;;1.90;1.50;;;;;;;;;;5014132;28;20581;-72
2022/06/26 07:46:12;;;;;;;2.22;1.33;;;;;;;;;;5009742;28;20534;-73
2022/06/26 07:48:41;;;;;;;2.70;1.55;;;;;;;;;;5012744;28;20506;-73
2022/06/26 07:51:08;;;;;;;2.08;1.20;;;;;;;;;;5012367;28;20572;-73
2022/06/26 07:53:36;;;;;;;1.48;1.10;;;;;;;;;;5022106;28;20422;-72
2022/06/26 07:56:03;;;;;;;1.77;1.33;;;;;;;;;;5013070;28;20785;-73
2022/06/26 07:58:31;;;;;;;2.03;1.20;;;;;;;;;;5021559;28;20439;-72
2022/06/26 08:00:58;;;;;;;1.55;1.30;;;;;;;;;;5016639;28;20965;-72
2022/06/26 08:03:25;;;;;;;1.50;1.40;;;;;;;;;;5016137;28;20431;-73
2022/06/26 08:05:53;;;;;;;2.78;1.50;;;;;;;;;;5013020;28;20496;-74
2022/06/26 08:08:21;;;;;;;2.20;1.50;;;;;;;;;;5016841;28;20422;-74
2022/06/26 08:10:48;;;;;;;2.30;1.33;;;;;;;;;;5020408;28;20439;-72
2022/06/26 08:13:15;;;;;;;2.28;1.40;;;;;;;;;;5018995;28;20908;-74
2022/06/26 08:15:42;;;;;;;1.60;1.23;;;;;;;;;;5016883;28;20432;-74
2022/06/26 08:18:09;;;;;;;1.60;1.10;;;;;;;;;;5016333;28;20458;-73
2022/06/26 08:20:36;;;;;;;1.20;1.10;;;;;;;;;;5016917;28;20798;-72
2022/06/26 08:23:05;;;;;;;2.50;1.20;;;;;;;;;;5018359;28;20532;-72
2022/06/26 08:25:32;;;;;;;1.90;1.10;;;;;;;;;;5014109;28;20519;-73
2022/06/26 08:28:00;;;;;;;2.22;1.25;;;;;;;;;;5017880;28;20846;-72
2022/06/26 08:30:27;;;;;;;1.80;1.10;;;;;;;;;;5020329;28;20534;-74
2022/06/26 08:32:56;;;;;;;2.78;1.23;;;;;;;;;;5020845;28;20469;-74
2022/06/26 08:35:23;;;;;;;1.40;0.90;;;;;;;;;;5010507;28;20455;-74
2022/06/26 08:37:50;;;;;;;1.33;1.00;;;;;;;;;;5017598;28;20594;-72
2022/06/26 08:40:19;;;;;;;2.83;1.10;;;;;;;;;;5017004;28;20932;-72
2022/06/26 08:42:49;;;;;;;3.00;1.40;;;;;;;;;;5017435;28;20445;-72
2022/06/26 08:45:17;;;;;;;1.58;1.00;;;;;;;;;;5016166;28;20437;-73
2022/06/26 08:47:45;;;;;;;1.20;0.90;;;;;;;;;;5018137;28;20454;-73
2022/06/26 08:50:12;;;;;;;1.92;0.90;;;;;;;;;;5019572;28;20900;-74
2022/06/26 08:52:40;;;;;;;2.03;1.40;;;;;;;;;;5014716;28;20438;-74
2022/06/26 08:55:07;;;;;;;1.55;1.30;;;;;;;;;;5013904;28;20937;-75
2022/06/26 08:57:36;;;;;;;1.50;1.30;;;;;;;;;;5014254;28;20440;-74
2022/06/26 09:00:04;;;;;;;1.50;1.40;;;;;;;;;;5018096;28;20423;-74
2022/06/26 09:02:32;;;;;;;2.23;1.33;;;;;;;;;;5016907;28;20530;-72
2022/06/26 09:04:59;;;;;;;2.10;1.00;;;;;;;;;;5016802;28;20440;-74
2022/06/26 09:07:26;;;;;;;2.28;1.05;;;;;;;;;;5017013;28;20557;-74
2022/06/26 09:09:53;;;;;;;1.45;1.10;;;;;;;;;;5013512;28;20438;-74
2022/06/26 09:12:20;;;;;;;1.90;1.13;;;;;;;;;;5018531;28;20434;-74
2022/06/26 09:14:52;;;;;;;1.70;1.20;;;;;;;;;;5017419;28;20443;-74
2022/06/26 09:17:23;;;;;;;1.58;1.27;;;;;;;;;;5014547;28;20486;-74
2022/06/26 09:19:52;;;;;;;1.10;1.00;;;;;;;;;;5014089;28;20424;-74
2022/06/26 09:22:19;;;;;;;2.03;1.27;;;;;;;;;;5016950;28;20423;-74
2022/06/26 09:24:53;;;;;;;1.70;1.00;;;;;;;;;;5013405;28;20532;-74
2022/06/26 09:27:21;;;;;;;1.35;1.00;;;;;;;;;;5010918;28;20483;-75
2022/06/26 09:29:51;;;;;;;1.13;1.00;;;;;;;;;;5015549;28;20923;-74
2022/06/26 09:32:19;;;;;;;1.67;1.05;;;;;;;;;;5018803;28;20432;-74
2022/06/26 09:34:47;;;;;;;1.30;1.20;;;;;;;;;;5018014;28;20454;-74
2022/06/26 09:37:15;;;;;;;1.48;1.10;;;;;;;;;;5017821;28;20447;-74
2022/06/26 09:39:42;;;;;;;2.70;1.00;;;;;;;;;;5021364;28;20853;-74
2022/06/26 09:42:19;;;;;;;2.67;1.20;;;;;;;;;;5020186;28;20998;-74
2022/06/26 09:44:47;;;;;;;2.70;1.17;;;;;;;;;;5018582;28;20541;-74
2022/06/26 09:47:24;;;;;;;1.27;1.15;;;;;;;;;;5017097;28;20865;-74
2022/06/26 09:49:52;;;;;;;2.20;1.38;;;;;;;;;;5017532;28;20427;-74
2022/06/26 09:52:19;;;;;;;1.75;1.23;;;;;;;;;;5017731;28;20435;-73
2022/06/26 09:54:47;;;;;;;1.70;1.10;;;;;;;;;;5019408;28;20437;-74
2022/06/26 09:57:15;;;;;;;1.85;1.40;;;;;;;;;;5021445;28;20430;-74
2022/06/26 09:59:42;;;;;;;2.53;1.40;;;;;;;;;;5025433;28;20450;-74
2022/06/26 10:07:45;;;;;;;1.05;0.90;;;;;;;;;;5020620;28;20450;-74
2022/06/26 10:10:12;;;;;;;3.90;1.60;;;;;;;;;;5019620;28;20542;-72
2022/06/26 10:12:39;;;;;;;1.20;1.10;;;;;;;;;;5012323;28;20428;-74
2022/06/26 10:15:07;;;;;;;1.70;1.30;;;;;;;;;;5017675;28;20430;-74
2022/06/26 10:17:39;;;;;;;1.90;1.10;;;;;;;;;;5014235;28;20870;-74
2022/06/26 10:20:09;;;;;;;1.45;1.10;;;;;;;;;;5016002;28;20512;-74
2022/06/26 10:22:40;;;;;;;4.07;2.38;;;;;;;;;;5015653;28;20431;-74
2022/06/26 10:25:07;;;;;;;1.50;1.20;;;;;;;;;;5015886;28;20432;-74
2022/06/26 10:27:35;;;;;;;1.77;1.30;;;;;;;;;;5018526;28;20450;-74
2022/06/26 10:30:07;;;;;;;3.28;1.50;;;;;;;;;;5019677;28;20454;-74
2022/06/26 10:32:35;;;;;;;2.03;1.40;;;;;;;;;;5020932;28;20514;-74
2022/06/26 10:35:03;;;;;;;2.30;1.42;;;;;;;;;;5019605;28;20418;-74
2022/06/26 10:37:41;;;;;;;2.00;1.10;;;;;;;;;;5021759;28;20426;-75
2022/06/26 10:42:59;;;;;;;2.28;1.40;;;;;;;;;;5015772;28;20418;-72
2022/06/26 10:45:29;;;;;;;1.98;1.38;;;;;;;;;;5023774;28;20534;-74
2022/06/26 10:47:57;;;;;;;1.40;1.20;;;;;;;;;;5014776;28;20508;-72
2022/06/26 10:50:28;;;;;;;1.90;1.60;;;;;;;;;;5020084;28;20457;-74
2022/06/26 10:53:12;;;;;;;1.80;1.00;;;;;;;;;;5019667;28;20861;-74
2022/06/26 10:55:39;;;;;;;1.40;1.30;;;;;;;;;;5018087;28;20453;-74
2022/06/26 10:58:06;;;;;;;1.45;1.30;;;;;;;;;;5016059;28;20427;-74
2022/06/26 11:00:33;;;;;;;1.88;1.60;;;;;;;;;;5020176;28;20415;-73
2022/06/26 11:03:00;;;;;;;2.63;1.50;;;;;;;;;;5027936;28;20505;-74
2022/06/26 11:05:29;;;;;;;1.70;1.40;;;;;;;;;;5018457;28;20433;-75
2022/06/26 11:07:57;;;;;;;1.63;1.52;;;;;;;;;;5024039;28;20426;-74
2022/06/26 11:10:26;;;;;;;1.40;1.30;;;;;;;;;;5019720;28;21121;-74
2022/06/26 11:12:53;;;;;;;3.25;1.20;;;;;;;;;;5020588;28;20442;-73
2022/06/26 11:15:24;;;;;;;1.70;1.40;;;;;;;;;;5015383;28;20933;-74
2022/06/26 11:17:59;;;;;;;1.57;1.27;;;;;;;;;;5020027;28;20489;-74
2022/06/26 11:23:20;;;;;;;1.52;1.42;;;;;;;;;;5019693;28;20884;-74
2022/06/26 11:25:48;;;;;;;1.30;1.20;;;;;;;;;;5020086;28;20427;-74
2022/06/26 11:28:16;;;;;;;1.50;1.40;;;;;;;;;;5019407;28;20520;-74
2022/06/26 11:30:44;;;;;;;1.80;1.70;;;;;;;;;;5018008;28;20620;-74
2022/06/26 11:33:11;;;;;;;1.73;1.52;;;;;;;;;;5018326;28;20438;-74
2022/06/26 11:35:38;;;;;;;1.63;1.52;;;;;;;;;;5018306;28;20428;-74
2022/06/26 11:38:15;;;;;;;1.70;1.60;;;;;;;;;;5015047;28;20440;-74
2022/06/26 11:40:44;;;;;;;1.70;1.50;;;;;;;;;;5022517;28;20836;-74
2022/06/26 11:43:12;;;;;;;1.58;1.48;;;;;;;;;;5017000;28;20813;-73
2022/06/26 11:45:40;;;;;;;1.90;1.50;;;;;;;;;;5014626;28;20453;-74
2022/06/26 11:48:08;;;;;;;2.63;1.70;;;;;;;;;;5020292;28;20482;-73
2022/06/26 11:50:36;;;;;;;1.83;1.60;;;;;;;;;;5014469;28;20434;-74
2022/06/26 11:53:04;;;;;;;2.00;1.90;;;;;;;;;;5021763;28;20439;-74
2022/06/26 11:55:31;;;;;;;1.92;1.83;;;;;;;;;;5020755;28;20467;-74
2022/06/26 11:58:02;;;;;;;1.70;1.50;;;;;;;;;;5017476;28;22159;-73
2022/06/26 12:00:29;;;;;;;1.80;1.70;;;;;;;;;;5017568;28;20520;-73
2022/06/26 12:02:57;;;;;;;2.90;1.70;;;;;;;;;;5017981;28;20446;-73
2022/06/26 12:05:25;;;;;;;2.00;1.70;;;;;;;;;;5019772;28;20445;-73
2022/06/26 12:07:53;;;;;;;2.80;1.60;;;;;;;;;;5019370;28;20438;-73
2022/06/26 12:10:27;;;;;;;2.67;1.60;;;;;;;;;;5018926;28;20431;-73
2022/06/26 12:12:54;;;;;;;2.40;2.00;;;;;;;;;;5013167;28;20514;-73
2022/06/26 12:15:24;;;;;;;2.70;2.00;;;;;;;;;;5022459;28;20434;-73
2022/06/26 12:17:55;;;;;;;3.05;2.00;;;;;;;;;;5018655;28;20442;-73
2022/06/26 12:20:22;;;;;;;3.00;2.05;;;;;;;;;;5013568;28;20423;-73
2022/06/26 12:22:50;;;;;;;3.78;2.88;;;;;;;;;;5013173;28;20473;-73
2022/06/26 12:25:30;;;;;;;3.10;2.80;;;;;;;;;;5012253;28;20446;-73
2022/06/26 12:27:57;;;;;;;2.58;2.10;;;;;;;;;;5010695;28;20425;-73
2022/06/26 12:30:27;;;;;;;2.00;1.90;;;;;;;;;;5015421;28;20447;-72
2022/06/26 12:32:54;;;;;;;2.25;2.05;;;;;;;;;;5012373;28;20440;-73
2022/06/26 12:35:21;;;;;;;3.55;1.70;;;;;;;;;;5014115;28;20438;-73
2022/06/26 12:37:48;;;;;;;2.13;1.80;;;;;;;;;;5015522;28;20440;-72
2022/06/26 12:40:16;;;;;;;4.30;2.15;;;;;;;;;;5011913;28;20423;-73
2022/06/26 12:42:43;;;;;;;2.65;1.90;;;;;;;;;;5014141;28;20510;-75
2022/06/26 12:45:10;;;;;;;3.33;1.90;;;;;;;;;;5013769;28;20434;-72
2022/06/26 12:47:39;;;;;;;2.28;2.00;;;;;;;;;;5011895;28;20443;-72
2022/06/26 12:50:07;;;;;;;1.77;1.52;;;;;;;;;;5016636;28;20449;-74
2022/06/26 12:52:34;;;;;;;2.08;1.88;;;;;;;;;;5006155;28;20433;-74
2022/06/26 12:55:01;;;;;;;1.60;1.50;;;;;;;;;;5018542;28;20442;-74
2022/06/26 12:57:29;;;;;;;1.60;1.50;;;;;;;;;;5016167;28;20441;-74
2022/06/26 12:59:56;;;;;;;2.22;1.70;;;;;;;;;;5014662;28;20458;-74
2022/06/26 13:02:23;;;;;;;2.70;1.60;;;;;;;;;;5016557;28;20450;-74
2022/06/26 13:04:52;;;;;;;2.72;1.80;;;;;;;;;;5009329;28;20536;-74
2022/06/26 13:07:19;;;;;;;2.50;1.80;;;;;;;;;;5009069;28;20418;-74
2022/06/26 13:09:46;;;;;;;2.20;2.00;;;;;;;;;;5013012;28;20475;-74
2022/06/26 13:12:14;;;;;;;2.25;1.80;;;;;;;;;;5008494;28;20434;-74
2022/06/26 13:14:42;;;;;;;3.10;2.47;;;;;;;;;;5019851;28;20415;-74
2022/06/26 13:17:09;;;;;;;2.50;2.20;;;;;;;;;;5015070;28;20526;-74
2022/06/26 13:19:37;;;;;;;2.90;2.20;;;;;;;;;;5016456;28;20451;-74
2022/06/26 13:22:06;;;;;;;2.33;1.83;;;;;;;;;;5013189;28;20514;-74
2022/06/26 13:24:33;;;;;;;2.25;1.95;;;;;;;;;;5017150;28;20458;-74
2022/06/26 13:27:00;;;;;;;2.15;1.90;;;;;;;;;;5011815;28;20432;-74
2022/06/26 13:29:27;;;;;;;2.42;2.10;;;;;;;;;;5016787;28;21093;-74
2022/06/26 13:31:54;;;;;;;2.27;2.07;;;;;;;;;;5018860;28;20491;-74
2022/06/26 13:34:21;;;;;;;2.63;2.10;;;;;;;;;;5019713;28;21053;-74
2022/06/26 13:36:49;;;;;;;2.70;2.50;;;;;;;;;;5016691;28;20419;-74
2022/06/26 13:39:17;;;;;;;3.53;2.42;;;;;;;;;;5018984;28;20429;-74
2022/06/26 13:41:45;;;;;;;2.38;2.17;;;;;;;;;;5014541;28;20429;-74
2022/06/26 13:44:12;;;;;;;2.60;2.40;;;;;;;;;;5016664;28;20820;-74
2022/06/26 13:46:39;;;;;;;3.05;2.40;;;;;;;;;;5016199;28;20915;-74
2022/06/26 13:49:07;;;;;;;3.38;2.50;;;;;;;;;;5020148;28;20808;-74
2022/06/26 13:51:34;;;;;;;2.70;2.30;;;;;;;;;;5018476;28;20732;-74
2022/06/26 13:54:02;;;;;;;2.80;2.60;;;;;;;;;;5020785;28;20578;-74
2022/06/26 13:56:30;;;;;;;2.80;2.40;;;;;;;;;;5020369;28;20467;-74
2022/06/26 13:58:57;;;;;;;2.92;2.65;;;;;;;;;;5018100;28;20453;-74
2022/06/26 14:01:25;;;;;;;3.03;2.75;;;;;;;;;;5018432;28;20487;-74
2022/06/26 14:03:52;;;;;;;3.08;2.60;;;;;;;;;;5021801;28;20440;-74
2022/06/26 14:06:20;;;;;;;3.20;2.65;;;;;;;;;;5017521;28;20432;-74
2022/06/26 14:08:47;;;;;;;2.88;2.67;;;;;;;;;;5022597;28;20988;-74
2022/06/26 14:11:14;;;;;;;2.97;2.58;;;;;;;;;;5014028;28;20801;-74
2022/06/26 14:13:42;;;;;;;3.00;2.70;;;;;;;;;;5021425;28;20430;-74
2022/06/26 14:16:09;;;;;;;3.00;2.80;;;;;;;;;;5015849;28;20428;-74
2022/06/26 14:18:37;;;;;;;2.78;2.47;;;;;;;;;;5015402;28;20456;-74
2022/06/26 14:21:04;;;;;;;3.30;3.00;;;;;;;;;;5014417;28;20517;-73
2022/06/26 14:26:18;;;;;;;3.10;2.60;;;;;;;;;;5012143;28;20426;-74
2022/06/26 14:28:47;;;;;;;3.17;2.90;;;;;;;;;;5011929;28;20907;-74
2022/06/26 14:31:14;;;;;;;3.70;3.13;;;;;;;;;;5012851;28;20462;-74
2022/06/26 14:33:41;;;;;;;3.20;2.90;;;;;;;;;;5012622;28;20424;-74
2022/06/26 14:36:09;;;;;;;3.20;2.90;;;;;;;;;;5014873;28;20889;-73
2022/06/26 14:38:36;;;;;;;3.42;2.90;;;;;;;;;;5020850;28;20538;-74
2022/06/26 14:41:05;;;;;;;4.10;2.90;;;;;;;;;;5018894;28;20440;-74
2022/06/26 14:43:33;;;;;;;3.17;2.80;;;;;;;;;;5018802;28;20893;-74
2022/06/26 14:46:01;;;;;;;3.70;2.80;;;;;;;;;;5018664;28;21164;-74
2022/06/26 14:48:29;;;;;;;3.22;2.83;;;;;;;;;;5019233;28;20432;-74
2022/06/26 14:50:56;;;;;;;2.92;2.70;;;;;;;;;;5017731;28;20418;-74
2022/06/26 14:53:24;;;;;;;3.42;3.13;;;;;;;;;;5020590;28;20422;-74
2022/06/26 14:55:51;;;;;;;3.10;2.80;;;;;;;;;;5019784;28;20422;-74
2022/06/26 14:58:19;;;;;;;2.60;2.40;;;;;;;;;;5012228;28;20436;-74
2022/06/26 15:00:47;;;;;;;3.03;2.60;;;;;;;;;;5017660;28;20977;-74
2022/06/26 15:03:15;;;;;;;2.60;2.10;;;;;;;;;;5015537;28;20892;-74